Date,TemperatureHighF,TemperatureAvgF,TemperatureLowF,DewpointHighF,DewpointAvgF,DewpointLowF,HumidityHigh,HumidityAvg,HumidityLow,PressureMaxIn,PressureMinIn,WindSpeedMaxMPH,WindSpeedAvgMPH,GustSpeedMaxMPH,PrecipitationSumIn
2013-1-1,30.0,15.7,9.0,14.0,8.0,1.0,79,71,36,30.48,30.35,7,3,0,0.00
2013-1-2,16.0,10.8,1.0,9.0,4.8,-4.0,78,75,71,30.45,30.32,5,1,0,0.00
2013-1-3,30.0,14.5,0.0,14.0,1.4,-8.0,78,59,26,30.32,30.17,13,3,0,0.00
2013-1-4,37.0,24.5,14.0,10.0,6.9,3.0,61,47,29,30.33,30.21,12,6,0,0.00
2013-1-5,28.0,24.7,18.0,19.0,13.6,7.0,73,62,42,30.23,30.14,7,3,0,0.00
2013-1-6,39.0,28.2,21.0,21.0,17.7,14.0,79,64,44,30.16,30.07,9,5,0,0.00
2013-1-7,46.0,39.9,28.0,32.0,26.0,18.0,69,57,45,30.14,29.99,18,10,30,0.00
2013-1-8,48.0,42.2,36.0,32.0,27.8,23.0,65,56,46,30.15,30.00,24,14,32,0.00
2013-1-9,45.0,36.2,27.0,30.0,21.8,14.0,74,55,42,30.00,29.73,25,9,38,0.00
2013-1-10,32.0,25.6,23.0,19.0,13.5,9.0,79,60,36,29.95,29.85,15,5,17,0.41
2013-1-11,27.0,19.9,10.0,10.0,6.9,1.0,78,57,32,30.17,29.94,13,5,16,0.00
2013-1-12,27.0,11.5,1.0,5.0,-0.5,-8.0,77,59,21,30.25,30.15,8,4,0,0.00
2013-1-13,28.0,13.2,0.0,1.0,-1.9,-9.0,77,53,18,30.33,30.23,9,3,0,0.00
2013-1-14,41.0,21.0,7.0,14.0,2.0,-6.0,73,47,17,30.39,30.28,9,4,0,0.00
2013-1-15,46.0,25.4,12.0,14.0,9.6,5.0,78,54,20,30.55,30.39,9,5,0,0.00
2013-1-16,50.0,31.0,18.0,16.0,7.8,3.0,58,40,15,30.57,30.46,12,6,0,0.00
2013-1-17,48.0,32.3,25.0,12.0,7.6,3.0,53,36,18,30.47,30.35,12,7,0,0.00
2013-1-18,46.0,31.9,21.0,10.0,7.3,3.0,48,36,20,30.37,30.28,10,7,0,0.00
2013-1-19,52.0,34.2,21.0,14.0,8.8,5.0,58,36,16,30.38,30.29,8,6,0,0.00
2013-1-20,48.0,30.6,19.0,14.0,6.3,0.0,58,39,12,30.40,30.29,10,5,0,0.00
2013-4-29,50.0,45.6,37.0,25.0,23.0,21.0,55,41,34,30.06,30.04,22,16,30,0.00
2013-4-30,50.0,38.0,23.0,23.0,18.4,14.0,79,48,25,30.37,30.06,17,6,24,0.00